Time;durP1;ratioP1;P1;durP2;ratioP2;P2;SDS_P1;SDS_P2;PMS_P1;PMS_P2;Temp;Humidity;BMP_temperature;BMP_pressure;BME280_temperature;BME280_humidity;BME280_pressure;Samples;Min_cycle;Max_cycle;Signal;HPM_P1;HPM_P2
2022/07/07 00:02:12;;;;;;;4.40;2.60;;;17.30;99.90;;;;;;4960814;28;20198;-74
2022/07/07 00:04:38;;;;;;;2.50;2.30;;;17.20;99.90;;;;;;4963195;28;20272;-74
2022/07/07 00:07:05;;;;;;;2.73;2.30;;;17.30;99.90;;;;;;4961115;28;20254;-74
2022/07/07 00:09:32;;;;;;;4.33;2.30;;;17.20;99.90;;;;;;4962690;28;20198;-73
2022/07/07 00:11:58;;;;;;;3.60;2.43;;;17.20;99.90;;;;;;4959833;28;20216;-73
2022/07/07 00:14:25;;;;;;;3.47;2.50;;;17.20;99.90;;;;;;4955116;28;20222;-74
2022/07/07 00:16:52;;;;;;;3.63;2.37;;;17.20;99.90;;;;;;4965564;28;20583;-74
2022/07/07 00:19:19;;;;;;;5.03;2.50;;;17.30;99.90;;;;;;4950366;28;20198;-74
2022/07/07 00:21:45;;;;;;;3.70;2.90;;;17.40;99.90;;;;;;4957617;28;20209;-74
2022/07/07 00:24:12;;;;;;;2.67;2.23;;;17.30;99.90;;;;;;4958645;28;20573;-73
2022/07/07 00:26:39;;;;;;;5.07;2.37;;;17.30;99.90;;;;;;4967188;28;20253;-74
2022/07/07 00:29:06;;;;;;;5.00;2.10;;;17.10;99.90;;;;;;4956776;28;20208;-74
2022/07/07 00:31:33;;;;;;;3.73;2.23;;;17.00;99.90;;;;;;4971411;28;20616;-74
2022/07/07 00:34:00;;;;;;;3.13;2.27;;;17.00;99.90;;;;;;4968060;28;20209;-74
2022/07/07 00:36:27;;;;;;;3.57;2.10;;;17.00;99.90;;;;;;4960023;28;20198;-74
2022/07/07 00:38:54;;;;;;;2.40;2.00;;;17.00;99.90;;;;;;4961580;28;20669;-74
2022/07/07 00:41:20;;;;;;;3.77;2.37;;;17.10;99.90;;;;;;4971369;28;20194;-74
2022/07/07 00:43:47;;;;;;;2.87;2.20;;;17.10;99.90;;;;;;4964414;28;20217;-74
2022/07/07 00:46:13;;;;;;;3.63;2.10;;;17.00;99.90;;;;;;4967441;28;20204;-74
2022/07/07 00:48:41;;;;;;;2.30;2.10;;;17.00;99.90;;;;;;4967846;28;20217;-73
2022/07/07 00:51:11;;;;;;;5.13;2.63;;;16.90;99.90;;;;;;4969561;28;20576;-74
2022/07/07 00:53:39;;;;;;;3.93;2.60;;;16.90;99.90;;;;;;4961950;28;20222;-74
2022/07/07 00:56:06;;;;;;;4.10;2.97;;;17.00;99.90;;;;;;4966354;28;20195;-74
2022/07/07 00:58:33;;;;;;;4.67;3.07;;;17.10;99.90;;;;;;4963661;28;20242;-74
2022/07/07 01:01:01;;;;;;;3.53;3.10;;;17.10;99.90;;;;;;4969669;28;20217;-74
2022/07/07 01:03:29;;;;;;;4.97;3.57;;;17.10;99.90;;;;;;4972435;28;20228;-75
2022/07/07 01:05:57;;;;;;;4.37;3.10;;;17.00;99.90;;;;;;4968903;28;20208;-74
2022/07/07 01:08:24;;;;;;;3.87;3.10;;;17.00;99.90;;;;;;4968782;28;20272;-74
2022/07/07 01:10:51;;;;;;;3.20;2.43;;;17.00;99.90;;;;;;4963849;28;20253;-74
2022/07/07 01:13:18;;;;;;;3.33;2.50;;;16.90;99.90;;;;;;4967958;28;20689;-74
2022/07/07 01:15:44;;;;;;;4.03;2.43;;;16.90;99.90;;;;;;4973151;28;20194;-74
2022/07/07 01:18:11;;;;;;;3.40;2.43;;;17.00;99.90;;;;;;4966582;28;20195;-74
2022/07/07 01:20:44;;;;;;;5.03;2.27;;;17.00;99.90;;;;;;4968746;28;20201;-73
2022/07/07 01:23:11;;;;;;;3.43;2.13;;;17.00;99.90;;;;;;4966565;28;20218;-74
2022/07/07 01:25:38;;;;;;;4.30;2.40;;;17.00;99.90;;;;;;4968661;28;20205;-72
2022/07/07 01:28:05;;;;;;;4.10;2.60;;;16.90;99.90;;;;;;4968969;28;20229;-73
2022/07/07 01:30:31;;;;;;;4.73;2.20;;;16.90;99.90;;;;;;4969617;28;20205;-74
2022/07/07 01:32:58;;;;;;;5.97;2.30;;;16.90;99.90;;;;;;4965894;28;20772;-74
2022/07/07 01:35:25;;;;;;;3.53;2.60;;;16.90;99.90;;;;;;4969689;28;20219;-74
2022/07/07 01:37:51;;;;;;;3.47;2.30;;;17.00;99.90;;;;;;4969713;28;20213;-74
2022/07/07 01:40:18;;;;;;;2.40;2.20;;;17.00;99.90;;;;;;4963889;28;20244;-74
2022/07/07 01:42:44;;;;;;;2.20;2.00;;;17.00;99.90;;;;;;4968865;28;20260;-74
2022/07/07 01:45:11;;;;;;;2.50;1.67;;;17.00;99.90;;;;;;4973938;28;20202;-73
2022/07/07 01:47:38;;;;;;;3.47;1.77;;;17.00;99.90;;;;;;4972050;28;20228;-74
2022/07/07 01:50:05;;;;;;;2.63;1.83;;;17.00;99.90;;;;;;4962953;28;20213;-74
2022/07/07 01:52:31;;;;;;;3.50;2.07;;;17.00;99.90;;;;;;4968455;28;20193;-74
2022/07/07 01:54:58;;;;;;;3.97;2.13;;;16.90;99.90;;;;;;4969706;28;20213;-75
2022/07/07 01:57:25;;;;;;;3.20;2.40;;;16.80;99.90;;;;;;4965506;28;20193;-74
2022/07/07 01:59:52;;;;;;;4.50;1.73;;;16.80;99.90;;;;;;4963556;28;20201;-74
2022/07/07 02:02:18;;;;;;;3.27;1.70;;;16.80;99.90;;;;;;4968346;28;20205;-74
2022/07/07 02:04:45;;;;;;;3.53;1.70;;;16.80;99.90;;;;;;4971037;28;20229;-74
2022/07/07 02:07:12;;;;;;;2.13;1.80;;;16.80;99.90;;;;;;4969675;28;20596;-74
2022/07/07 02:09:39;;;;;;;3.20;1.60;;;16.90;99.90;;;;;;4970360;28;20562;-74
2022/07/07 02:12:06;;;;;;;3.43;1.20;;;16.90;99.90;;;;;;4969601;28;20217;-74
2022/07/07 02:14:33;;;;;;;2.47;1.73;;;16.80;99.90;;;;;;4969383;28;20221;-74
2022/07/07 02:16:59;;;;;;;2.10;1.50;;;16.80;99.90;;;;;;4968038;28;20200;-74
2022/07/07 02:19:26;;;;;;;4.17;1.70;;;16.90;99.90;;;;;;4970254;28;20193;-74
2022/07/07 02:21:53;;;;;;;2.07;1.70;;;16.90;99.90;;;;;;4968618;28;20625;-74
2022/07/07 02:24:19;;;;;;;3.40;1.70;;;17.10;99.90;;;;;;4968990;28;20596;-74
2022/07/07 02:26:46;;;;;;;2.47;1.50;;;17.00;99.90;;;;;;4968812;28;20197;-74
2022/07/07 02:29:13;;;;;;;4.43;1.73;;;17.00;99.90;;;;;;4969870;28;20197;-74
2022/07/07 02:31:39;;;;;;;3.17;1.70;;;17.00;99.90;;;;;;4968915;28;20202;-74
2022/07/07 02:34:06;;;;;;;3.13;1.63;;;17.20;99.90;;;;;;4964602;28;20256;-74
2022/07/07 02:36:33;;;;;;;1.60;1.40;;;17.10;99.90;;;;;;4969143;28;20202;-73
2022/07/07 02:39:00;;;;;;;3.80;1.80;;;17.10;99.90;;;;;;4970692;28;20245;-73
2022/07/07 02:41:26;;;;;;;1.97;1.77;;;17.00;99.90;;;;;;4966717;28;20209;-74
2022/07/07 02:43:53;;;;;;;2.10;1.60;;;17.10;99.90;;;;;;4968670;28;20725;-74
2022/07/07 02:46:19;;;;;;;3.43;1.67;;;16.90;99.90;;;;;;4967969;28;20252;-74
2022/07/07 02:48:46;;;;;;;1.93;1.53;;;17.00;99.90;;;;;;4967635;28;20696;-74
2022/07/07 02:51:13;;;;;;;5.03;1.60;;;17.00;99.90;;;;;;4966138;28;20201;-74
2022/07/07 02:53:40;;;;;;;2.83;1.67;;;16.90;99.90;;;;;;4966384;28;20617;-74
2022/07/07 02:56:07;;;;;;;2.07;1.40;;;17.00;99.90;;;;;;4968724;28;20201;-74
2022/07/07 02:58:34;;;;;;;1.67;1.40;;;17.00;99.90;;;;;;4968220;28;20198;-74
2022/07/07 03:01:01;;;;;;;2.43;1.50;;;17.00;99.90;;;;;;4962896;28;20205;-74
2022/07/07 03:03:27;;;;;;;2.00;1.40;;;16.90;99.90;;;;;;4967964;28;20226;-74
2022/07/07 03:05:55;;;;;;;3.27;1.77;;;17.00;99.90;;;;;;4968937;28;20619;-74
2022/07/07 03:08:22;;;;;;;2.70;1.60;;;17.00;99.90;;;;;;4965036;28;20697;-74
2022/07/07 03:10:56;;;;;;;1.53;1.40;;;17.10;99.90;;;;;;4967192;28;20261;-74
2022/07/07 03:13:23;;;;;;;2.50;1.67;;;17.20;99.90;;;;;;4968748;28;20588;-74
2022/07/07 03:15:50;;;;;;;4.23;1.80;;;17.20;99.90;;;;;;4962427;28;20226;-74
2022/07/07 03:18:16;;;;;;;2.83;1.43;;;17.30;99.90;;;;;;4969527;28;20205;-74
2022/07/07 03:20:43;;;;;;;2.27;1.77;;;17.20;99.90;;;;;;4966941;28;20229;-74
2022/07/07 03:23:10;;;;;;;2.00;1.70;;;17.20;99.90;;;;;;4961333;28;20702;-74
2022/07/07 03:25:37;;;;;;;2.80;1.80;;;17.30;99.90;;;;;;4969180;28;20255;-74
2022/07/07 03:28:04;;;;;;;2.87;2.13;;;17.30;99.90;;;;;;4965255;28;20213;-74
2022/07/07 03:30:31;;;;;;;3.07;1.97;;;17.20;99.90;;;;;;4966686;28;20197;-74
2022/07/07 03:32:57;;;;;;;2.23;1.90;;;17.10;99.90;;;;;;4965081;28;20296;-74
2022/07/07 03:35:24;;;;;;;3.47;1.83;;;17.10;99.90;;;;;;4970489;28;20280;-74
2022/07/07 03:37:50;;;;;;;5.53;2.03;;;17.00;99.90;;;;;;4967089;28;20629;-74
2022/07/07 03:40:17;;;;;;;2.60;1.60;;;17.10;99.90;;;;;;4966838;28;20784;-74
2022/07/07 03:42:44;;;;;;;3.13;1.63;;;17.00;99.90;;;;;;4963826;28;20202;-73
2022/07/07 03:45:11;;;;;;;3.33;1.60;;;17.10;99.90;;;;;;4962115;28;20201;-74
2022/07/07 03:47:37;;;;;;;4.33;1.97;;;17.20;99.90;;;;;;4967706;28;20614;-73
2022/07/07 03:50:04;;;;;;;5.33;1.93;;;17.20;99.90;;;;;;4965483;28;20194;-74
2022/07/07 03:52:31;;;;;;;3.27;2.20;;;17.30;99.90;;;;;;4968400;28;20190;-74
2022/07/07 03:54:58;;;;;;;2.90;2.10;;;17.20;99.90;;;;;;4965459;28;20213;-74
2022/07/07 03:57:24;;;;;;;3.37;1.93;;;17.30;99.90;;;;;;4969533;28;20276;-73
2022/07/07 03:59:51;;;;;;;3.53;2.10;;;17.40;99.90;;;;;;4964748;28;20221;-75
2022/07/07 04:02:18;;;;;;;4.70;2.17;;;17.30;99.90;;;;;;4969920;28;20697;-73
2022/07/07 04:04:45;;;;;;;5.30;2.37;;;17.40;99.90;;;;;;4969993;28;20633;-71
2022/07/07 04:07:12;;;;;;;3.33;2.40;;;17.40;99.90;;;;;;4966082;28;20371;-74
2022/07/07 04:09:38;;;;;;;2.47;1.93;;;17.40;99.90;;;;;;4968900;28;20309;-74
2022/07/07 04:12:06;;;;;;;5.83;1.93;;;17.30;99.90;;;;;;4972155;28;20690;-74
2022/07/07 04:14:32;;;;;;;2.07;1.80;;;17.40;99.90;;;;;;4967558;28;20300;-74
2022/07/07 04:17:00;;;;;;;2.87;1.83;;;17.30;99.90;;;;;;4968845;28;20201;-73
2022/07/07 04:19:26;;;;;;;1.60;1.50;;;17.40;99.90;;;;;;4972027;28;20202;-73
2022/07/07 04:21:53;;;;;;;4.10;1.90;;;17.40;99.90;;;;;;4973404;28;20211;-73
2022/07/07 04:24:20;;;;;;;4.07;1.73;;;17.50;99.90;;;;;;4968862;28;20725;-73
2022/07/07 04:26:46;;;;;;;2.20;1.73;;;17.50;99.90;;;;;;4969134;28;20289;-73
2022/07/07 04:29:14;;;;;;;2.57;1.57;;;17.50;99.90;;;;;;4965766;28;20309;-73
2022/07/07 04:31:44;;;;;;;2.30;1.70;;;17.60;99.90;;;;;;4967774;28;20198;-73
2022/07/07 04:34:12;;;;;;;2.93;1.70;;;17.60;99.90;;;;;;4968424;28;20494;-73
2022/07/07 04:36:40;;;;;;;2.00;1.50;;;17.70;99.90;;;;;;4973598;28;20729;-73
2022/07/07 04:39:08;;;;;;;3.13;1.73;;;17.60;99.90;;;;;;4970324;28;20212;-74
2022/07/07 04:41:36;;;;;;;2.33;1.53;;;17.70;99.90;;;;;;4966952;28;20408;-72
2022/07/07 04:44:05;;;;;;;3.47;1.57;;;17.80;99.90;;;;;;4968593;28;20702;-74
2022/07/07 04:46:32;;;;;;;2.13;1.80;;;17.80;99.90;;;;;;4972102;28;20705;-74
2022/07/07 04:49:00;;;;;;;3.80;1.80;;;18.00;99.90;;;;;;4971063;28;20301;-73
2022/07/07 04:51:27;;;;;;;1.83;1.60;;;18.00;99.90;;;;;;4967816;28;20203;-74
2022/07/07 04:53:53;;;;;;;2.73;1.90;;;18.00;99.90;;;;;;4970023;28;20712;-74
2022/07/07 04:56:20;;;;;;;5.17;2.10;;;18.10;99.90;;;;;;4969255;28;20190;-74
2022/07/07 04:58:47;;;;;;;4.00;2.67;;;18.10;99.90;;;;;;4969667;28;20753;-74
2022/07/07 05:01:14;;;;;;;4.13;2.80;;;18.00;99.90;;;;;;4967560;28;20696;-72
2022/07/07 05:03:40;;;;;;;4.33;2.60;;;18.20;99.90;;;;;;4970372;28;20221;-74
2022/07/07 05:06:07;;;;;;;5.20;2.50;;;18.30;99.90;;;;;;4972463;28;20199;-74
2022/07/07 05:08:34;;;;;;;5.40;3.13;;;18.30;99.90;;;;;;4969870;28;20264;-74
2022/07/07 05:11:01;;;;;;;4.13;2.17;;;18.30;99.90;;;;;;4968217;28;20201;-73
2022/07/07 05:13:27;;;;;;;3.60;2.30;;;18.30;99.90;;;;;;4965886;28;20237;-74
2022/07/07 05:15:55;;;;;;;2.83;1.93;;;18.40;99.90;;;;;;4961335;28;20208;-74
2022/07/07 05:18:22;;;;;;;3.23;2.20;;;18.30;99.90;;;;;;4969105;28;20205;-73
2022/07/07 05:20:49;;;;;;;3.43;2.03;;;18.20;99.90;;;;;;4964044;28;20240;-74
2022/07/07 05:23:16;;;;;;;4.87;2.23;;;18.20;99.90;;;;;;4971165;28;20221;-74
2022/07/07 05:25:42;;;;;;;2.93;2.10;;;18.10;99.90;;;;;;4971387;28;20205;-74
2022/07/07 05:28:09;;;;;;;2.80;2.03;;;18.10;99.90;;;;;;4969645;28;20225;-75
2022/07/07 05:30:35;;;;;;;2.90;2.00;;;18.10;99.90;;;;;;4967197;28;20719;-72
2022/07/07 05:33:03;;;;;;;3.90;1.90;;;18.00;99.90;;;;;;4967715;28;20271;-74
2022/07/07 05:35:29;;;;;;;3.67;1.93;;;18.00;99.90;;;;;;4968071;28;20716;-72
2022/07/07 05:37:56;;;;;;;6.67;2.20;;;18.00;99.90;;;;;;4967657;28;20268;-72
2022/07/07 05:40:22;;;;;;;4.93;2.43;;;18.00;99.90;;;;;;4971282;28;20571;-72
2022/07/07 05:42:49;;;;;;;4.10;2.30;;;17.90;99.90;;;;;;4967509;28;20190;-72
2022/07/07 05:45:20;;;;;;;2.80;2.20;;;18.00;99.90;;;;;;4965541;28;20613;-72
2022/07/07 05:47:47;;;;;;;8.70;2.23;;;18.00;99.90;;;;;;4963527;28;20196;-73
2022/07/07 05:50:13;;;;;;;3.00;2.30;;;18.00;99.90;;;;;;4966032;28;20202;-71
2022/07/07 05:52:40;;;;;;;3.30;2.73;;;17.90;99.90;;;;;;4967818;28;20221;-71
2022/07/07 05:55:07;;;;;;;3.63;2.30;;;18.00;99.90;;;;;;4968261;28;20253;-72
2022/07/07 05:57:34;;;;;;;6.27;2.83;;;18.10;99.90;;;;;;4965715;28;20194;-71
2022/07/07 06:00:01;;;;;;;5.00;2.53;;;18.10;99.90;;;;;;4967265;28;20708;-71
2022/07/07 06:02:28;;;;;;;2.87;2.47;;;18.30;99.90;;;;;;4969771;28;20570;-72
2022/07/07 06:04:54;;;;;;;3.97;2.53;;;18.30;99.90;;;;;;4968771;28;20237;-72
2022/07/07 06:07:22;;;;;;;4.23;2.10;;;18.30;99.90;;;;;;4965343;28;20202;-70
2022/07/07 06:09:48;;;;;;;4.57;2.23;;;18.40;99.90;;;;;;4960835;28;20221;-72
2022/07/07 06:12:15;;;;;;;3.20;2.27;;;18.50;99.90;;;;;;4968995;28;20202;-72
2022/07/07 06:14:42;;;;;;;5.77;3.07;;;18.60;99.90;;;;;;4974305;28;20221;-71
2022/07/07 06:17:10;;;;;;;4.07;2.40;;;18.70;99.90;;;;;;4971966;28;20206;-71
2022/07/07 06:19:37;;;;;;;2.10;1.90;;;18.80;99.90;;;;;;4974000;28;20353;-73
2022/07/07 06:22:04;;;;;;;2.50;1.73;;;18.90;99.90;;;;;;4972444;28;20201;-71
2022/07/07 06:24:31;;;;;;;4.57;2.10;;;19.00;99.90;;;;;;4973339;28;20228;-71
2022/07/07 06:26:58;;;;;;;2.50;1.90;;;19.20;99.90;;;;;;4975518;28;20198;-70
2022/07/07 06:29:24;;;;;;;6.10;2.10;;;19.40;99.90;;;;;;4973037;28;20217;-72
2022/07/07 06:31:51;;;;;;;2.97;2.03;;;19.30;99.90;;;;;;4974902;28;20255;-70
2022/07/07 06:34:17;;;;;;;2.80;1.97;;;19.40;99.90;;;;;;4975285;28;20213;-71
2022/07/07 06:36:44;;;;;;;4.07;2.07;;;19.50;99.90;;;;;;4971850;28;20194;-71
2022/07/07 06:39:11;;;;;;;3.70;2.20;;;19.60;99.90;;;;;;4975861;28;20213;-70
2022/07/07 06:41:38;;;;;;;3.37;2.60;;;19.70;99.90;;;;;;4973885;28;20201;-71
2022/07/07 06:44:06;;;;;;;3.00;2.20;;;19.70;99.90;;;;;;4973909;28;20229;-72
2022/07/07 06:46:33;;;;;;;5.57;2.30;;;19.80;99.90;;;;;;4970146;28;20870;-72
2022/07/07 06:49:00;;;;;;;5.27;2.27;;;19.80;99.90;;;;;;4970810;28;20224;-72
2022/07/07 06:51:27;;;;;;;5.27;2.37;;;19.70;99.90;;;;;;4976046;28;20196;-70
2022/07/07 06:53:54;;;;;;;2.70;2.10;;;19.40;99.90;;;;;;4974231;28;20221;-69
2022/07/07 06:56:21;;;;;;;3.80;2.27;;;19.40;99.90;;;;;;4975665;28;20205;-74
2022/07/07 06:58:47;;;;;;;4.20;2.50;;;19.40;99.90;;;;;;4973263;28;20850;-71
2022/07/07 07:01:14;;;;;;;4.03;2.00;;;19.40;99.90;;;;;;4976484;28;20276;-71
2022/07/07 07:03:41;;;;;;;2.67;2.20;;;19.40;99.90;;;;;;4973106;28;20213;-72
2022/07/07 07:06:08;;;;;;;2.97;2.00;;;19.50;99.90;;;;;;4972675;28;20292;-71
2022/07/07 07:08:35;;;;;;;5.73;2.23;;;19.70;99.90;;;;;;4975664;28;20627;-72
2022/07/07 07:11:03;;;;;;;3.87;2.17;;;20.10;99.90;;;;;;4972703;28;20757;-71
2022/07/07 07:13:31;;;;;;;6.88;2.22;;;21.20;99.90;;;;;;4971897;28;21506;-71
2022/07/07 07:15:58;;;;;;;8.75;2.35;;;22.40;99.90;;;;;;4971783;28;20204;-71
2022/07/07 07:18:25;;;;;;;5.10;2.25;;;22.60;99.90;;;;;;4972999;28;20594;-74
2022/07/07 07:20:52;;;;;;;2.60;1.98;;;21.90;99.90;;;;;;4972707;28;20210;-72
2022/07/07 07:23:19;;;;;;;3.08;2.22;;;21.40;99.90;;;;;;4972481;28;20321;-73
2022/07/07 07:25:45;;;;;;;5.80;2.23;;;20.90;99.90;;;;;;4969959;28;20209;-72
2022/07/07 07:28:12;;;;;;;5.13;1.93;;;20.70;99.90;;;;;;4974075;28;20198;-73
2022/07/07 07:30:39;;;;;;;3.47;2.20;;;20.60;99.90;;;;;;4970796;28;20207;-76
2022/07/07 07:33:05;;;;;;;5.03;2.23;;;20.50;99.90;;;;;;4974359;28;20664;-74
2022/07/07 07:35:32;;;;;;;4.50;2.20;;;20.30;99.90;;;;;;4974199;28;20275;-75
2022/07/07 07:37:59;;;;;;;5.27;2.60;;;20.40;99.90;;;;;;4974530;28;20674;-75
2022/07/07 07:40:26;;;;;;;4.13;2.47;;;20.30;99.90;;;;;;4969926;28;20201;-74
2022/07/07 07:42:52;;;;;;;3.07;2.20;;;20.20;99.90;;;;;;4973101;28;20209;-74
2022/07/07 07:45:21;;;;;;;3.20;2.15;;;20.30;99.90;;;;;;4974000;28;21944;-74
2022/07/07 07:47:48;;;;;;;2.80;2.10;;;20.50;99.90;;;;;;4972600;28;20216;-74
2022/07/07 07:50:16;;;;;;;5.10;2.50;;;20.40;99.90;;;;;;4974162;28;20228;-74
2022/07/07 07:52:44;;;;;;;4.03;2.00;;;20.40;99.90;;;;;;4971431;28;20206;-75
2022/07/07 07:55:17;;;;;;;5.87;2.13;;;20.50;99.90;;;;;;4974724;28;20202;-74
2022/07/07 07:57:44;;;;;;;4.80;2.20;;;20.50;99.90;;;;;;4968574;28;20205;-73
2022/07/07 08:00:12;;;;;;;2.90;1.97;;;20.70;99.90;;;;;;4971838;28;20200;-73
2022/07/07 08:02:40;;;;;;;2.65;1.98;;;21.10;99.90;;;;;;4969929;28;20201;-71
2022/07/07 08:05:07;;;;;;;2.88;2.38;;;21.70;99.90;;;;;;4967790;28;20205;-75
2022/07/07 08:07:34;;;;;;;3.17;2.20;;;22.30;99.90;;;;;;4972358;28;20197;-72
2022/07/07 08:10:01;;;;;;;2.50;2.13;;;22.40;99.90;;;;;;4967508;28;20229;-75
2022/07/07 08:12:27;;;;;;;6.88;2.25;;;22.40;99.90;;;;;;4971704;28;20205;-72
2022/07/07 08:14:55;;;;;;;2.67;2.10;;;22.00;99.90;;;;;;4972909;28;20221;-73
2022/07/07 08:17:22;;;;;;;2.88;2.20;;;22.00;99.90;;;;;;4971650;28;20666;-75
2022/07/07 08:19:49;;;;;;;4.22;2.50;;;21.90;99.90;;;;;;4974255;28;20220;-74
2022/07/07 08:22:16;;;;;;;3.08;2.30;;;21.80;99.90;;;;;;4969511;28;20878;-73
2022/07/07 08:24:43;;;;;;;3.00;2.20;;;21.90;99.90;;;;;;4971730;28;20591;-74
2022/07/07 08:27:10;;;;;;;3.60;2.42;;;22.00;99.90;;;;;;4972577;28;20202;-75
2022/07/07 08:29:38;;;;;;;2.95;2.30;;;22.00;99.90;;;;;;4964294;28;20225;-73
2022/07/07 08:32:14;;;;;;;2.97;2.10;;;21.70;99.90;;;;;;4969669;28;20217;-72
2022/07/07 08:34:41;;;;;;;3.33;2.30;;;21.50;99.90;;;;;;4971017;28;20221;-73
2022/07/07 08:37:09;;;;;;;2.97;2.63;;;21.50;99.90;;;;;;4968736;28;20295;-73
2022/07/07 08:39:35;;;;;;;6.90;2.60;;;21.80;99.90;;;;;;4970556;28;20205;-71
2022/07/07 08:42:02;;;;;;;4.05;2.33;;;22.10;99.90;;;;;;4969165;28;20209;-72
2022/07/07 08:44:29;;;;;;;3.60;2.28;;;22.20;99.90;;;;;;4963539;28;20228;-72
2022/07/07 08:46:56;;;;;;;4.00;1.88;;;22.30;99.90;;;;;;4972534;28;20206;-72
2022/07/07 08:49:23;;;;;;;3.67;2.20;;;22.40;99.90;;;;;;4975080;28;20719;-73
2022/07/07 08:51:50;;;;;;;5.50;2.50;;;22.50;99.90;;;;;;4974293;28;20216;-71
2022/07/07 08:54:17;;;;;;;2.60;2.40;;;22.10;99.90;;;;;;4976561;28;20248;-75
2022/07/07 08:56:44;;;;;;;3.38;2.38;;;22.00;99.90;;;;;;4979754;28;20208;-72
2022/07/07 08:59:13;;;;;;;5.75;2.38;;;22.00;99.90;;;;;;4969886;28;20592;-73
2022/07/07 09:01:51;;;;;;;9.10;3.00;;;22.20;99.90;;;;;;4974819;28;20205;-71
2022/07/07 09:04:18;;;;;;;6.55;2.65;;;22.30;99.90;;;;;;4971656;28;20221;-73
2022/07/07 09:06:56;;;;;;;7.45;2.58;;;22.40;99.90;;;;;;4976502;28;20681;-72
2022/07/07 09:09:41;;;;;;;6.82;2.33;;;22.30;99.90;;;;;;4973439;28;20232;-72
2022/07/07 09:12:10;;;;;;;5.25;2.17;;;22.30;99.90;;;;;;4972219;28;20197;-72
2022/07/07 09:14:47;;;;;;;2.80;2.10;;;22.00;99.90;;;;;;4974201;28;20221;-72
2022/07/07 09:17:27;;;;;;;6.15;2.13;;;22.00;99.90;;;;;;4971928;28;20260;-73
2022/07/07 09:20:10;;;;;;;2.70;1.98;;;21.60;99.90;;;;;;4975042;28;20212;-73
2022/07/07 09:22:56;;;;;;;3.90;2.15;;;21.40;99.90;;;;;;4973563;28;20215;-73
2022/07/07 09:25:29;;;;;;;3.20;1.95;;;21.30;99.90;;;;;;4974706;28;20214;-73
2022/07/07 09:28:04;;;;;;;4.70;2.10;;;21.10;99.90;;;;;;4974570;28;20209;-72
2022/07/07 09:30:40;;;;;;;4.07;2.03;;;20.80;99.90;;;;;;4969777;28;20232;-73
2022/07/07 09:33:07;;;;;;;4.00;1.70;;;20.40;99.90;;;;;;4971755;28;20223;-74
2022/07/07 09:38:22;;;;;;;1.80;1.60;;;19.50;99.90;;;;;;4974237;28;20739;-74
2022/07/07 09:41:17;;;;;;;1.97;1.50;;;19.40;99.90;;;;;;4972030;28;20201;-73
2022/07/07 09:43:51;;;;;;;2.87;1.70;;;19.60;99.90;;;;;;4973552;28;20228;-73
2022/07/07 09:46:22;;;;;;;2.07;1.50;;;19.70;99.90;;;;;;4971203;28;20193;-74
2022/07/07 09:48:51;;;;;;;3.63;1.23;;;20.00;99.90;;;;;;4973517;28;20588;-72
2022/07/07 09:51:36;;;;;;;2.03;1.27;;;20.20;99.90;;;;;;4970940;28;21287;-73
2022/07/07 09:54:08;;;;;;;1.20;1.10;;;20.30;99.90;;;;;;4970044;28;20221;-73
2022/07/07 09:56:40;;;;;;;0.93;0.93;;;20.20;99.90;;;;;;4975531;28;20285;-72
2022/07/07 09:59:09;;;;;;;1.53;1.00;;;20.30;99.90;;;;;;4973296;28;20604;-73
2022/07/07 10:01:40;;;;;;;1.23;1.10;;;20.50;99.90;;;;;;4974125;28;20220;-72
2022/07/07 10:04:19;;;;;;;1.00;0.90;;;20.80;99.90;;;;;;4973508;28;20240;-73
2022/07/07 10:06:46;;;;;;;1.52;1.00;;;21.20;99.90;;;;;;4975413;28;20205;-73
2022/07/07 10:09:21;;;;;;;3.25;1.17;;;21.30;99.90;;;;;;4974027;28;20232;-72
2022/07/07 10:11:53;;;;;;;3.85;1.30;;;21.60;99.90;;;;;;4972695;28;20205;-71
2022/07/07 10:14:26;;;;;;;1.30;1.20;;;21.80;99.90;;;;;;4971410;28;20221;-75
2022/07/07 10:16:54;;;;;;;1.25;1.15;;;21.90;99.90;;;;;;4975178;28;20216;-73
2022/07/07 10:19:25;;;;;;;1.50;1.40;;;21.90;99.90;;;;;;4974743;28;20212;-74
2022/07/07 10:21:54;;;;;;;1.73;1.40;;;22.40;99.90;;;;;;4972257;28;20708;-73
2022/07/07 10:24:25;;;;;;;1.52;1.38;;;22.50;99.90;;;;;;4974054;28;20248;-72
2022/07/07 10:26:55;;;;;;;4.22;1.58;;;22.90;99.90;;;;;;4972686;28;20568;-73
2022/07/07 10:29:46;;;;;;;1.95;1.70;;;22.80;99.90;;;;;;4972438;28;20229;-73
2022/07/07 10:32:37;;;;;;;2.50;1.70;;;22.70;99.90;;;;;;4971753;28;20223;-75
2022/07/07 10:35:13;;;;;;;1.70;1.60;;;22.60;99.90;;;;;;4973455;28;20311;-73
2022/07/07 10:37:45;;;;;;;1.88;1.40;;;22.30;99.90;;;;;;4972091;28;20212;-73
2022/07/07 10:40:27;;;;;;;1.55;1.45;;;21.90;99.90;;;;;;4970092;28;20573;-73
2022/07/07 10:43:22;;;;;;;1.48;1.27;;;22.20;99.90;;;;;;4970227;28;20206;-73
2022/07/07 10:45:51;;;;;;;3.25;1.40;;;22.20;99.90;;;;;;4972806;28;20217;-75
2022/07/07 10:48:40;;;;;;;1.40;1.30;;;22.20;99.90;;;;;;4967739;28;20220;-73
2022/07/07 10:51:19;;;;;;;2.22;1.20;;;22.30;99.90;;;;;;4971436;28;20228;-72
2022/07/07 10:54:06;;;;;;;1.13;0.80;;;21.70;99.90;;;;;;4971499;28;20229;-72
2022/07/07 10:56:51;;;;;;;1.43;0.80;;;21.20;99.90;;;;;;4970672;28;20201;-72
2022/07/07 10:59:20;;;;;;;1.10;0.80;;;20.60;99.90;;;;;;4965031;28;20197;-73
2022/07/07 11:02:02;;;;;;;2.53;0.80;;;20.70;99.90;;;;;;4968997;28;20201;-70
2022/07/07 11:04:44;;;;;;;1.10;0.80;;;21.10;99.90;;;;;;4966683;28;20247;-73
2022/07/07 11:07:14;;;;;;;1.48;0.75;;;21.60;99.90;;;;;;4971896;28;20221;-73
2022/07/07 11:10:00;;;;;;;1.23;0.70;;;21.80;99.90;;;;;;4971300;28;20228;-74
2022/07/07 11:12:38;;;;;;;0.68;0.60;;;22.30;99.90;;;;;;4973632;28;20208;-71
2022/07/07 11:15:14;;;;;;;1.10;0.50;;;22.50;99.90;;;;;;4968649;28;20209;-73
2022/07/07 11:17:53;;;;;;;0.85;0.43;;;22.30;99.90;;;;;;4968389;28;20203;-71
2022/07/07 11:20:25;;;;;;;2.00;0.60;;;22.20;99.90;;;;;;4973919;28;20201;-73
2022/07/07 11:23:05;;;;;;;0.90;0.65;;;22.00;99.90;;;;;;4975680;28;20204;-73
2022/07/07 11:25:33;;;;;;;2.47;0.90;;;22.10;99.90;;;;;;4972765;28;20224;-73
2022/07/07 11:28:00;;;;;;;1.55;0.90;;;21.70;99.90;;;;;;4972478;28;20210;-74
2022/07/07 11:30:28;;;;;;;1.48;1.00;;;21.90;99.90;;;;;;4971070;28;20241;-74
2022/07/07 11:33:00;;;;;;;2.05;1.00;;;22.30;99.90;;;;;;4971144;28;20201;-73
2022/07/07 11:35:37;;;;;;;2.28;1.38;;;22.20;99.90;;;;;;4971072;28;20193;-73
2022/07/07 11:38:06;;;;;;;1.60;1.50;;;22.10;99.90;;;;;;4971758;28;20578;-74
2022/07/07 11:40:33;;;;;;;3.58;1.48;;;21.80;99.90;;;;;;4972940;28;20227;-73
2022/07/07 11:43:00;;;;;;;3.05;1.60;;;22.00;99.90;;;;;;4970517;28;20225;-74
2022/07/07 11:45:29;;;;;;;1.83;1.20;;;22.10;99.90;;;;;;4970249;28;20201;-73
2022/07/07 11:48:03;;;;;;;1.63;1.45;;;22.20;99.90;;;;;;4972381;28;20678;-72
2022/07/07 11:50:31;;;;;;;3.10;1.50;;;22.40;99.90;;;;;;4973022;28;20228;-72
2022/07/07 11:53:03;;;;;;;2.33;1.42;;;22.30;99.90;;;;;;4968826;28;20229;-73
2022/07/07 11:55:30;;;;;;;1.95;1.20;;;22.80;99.90;;;;;;4967075;28;20250;-73
2022/07/07 11:58:03;;;;;;;0.70;0.60;;;22.60;99.90;;;;;;4968435;28;20195;-74
2022/07/07 12:00:35;;;;;;;1.67;0.70;;;22.10;99.90;;;;;;4969995;28;20646;-72
2022/07/07 12:03:04;;;;;;;0.88;0.80;;;21.50;99.90;;;;;;4968126;28;20232;-72
2022/07/07 12:05:33;;;;;;;0.65;0.65;;;21.70;99.90;;;;;;4970528;28;20216;-71
2022/07/07 12:08:05;;;;;;;0.80;0.80;;;22.00;99.90;;;;;;4970560;28;20205;-72
2022/07/07 12:10:37;;;;;;;1.58;0.88;;;21.90;99.90;;;;;;4966258;28;20241;-72
2022/07/07 12:13:12;;;;;;;1.52;1.08;;;21.90;99.90;;;;;;4966069;28;20243;-72
2022/07/07 12:15:48;;;;;;;1.63;1.00;;;21.50;99.90;;;;;;4970676;28;20231;-73
2022/07/07 12:18:24;;;;;;;1.77;1.07;;;21.20;99.90;;;;;;4965405;28;20201;-72
2022/07/07 12:21:05;;;;;;;2.90;1.10;;;21.00;99.90;;;;;;4968384;28;20204;-72
2022/07/07 12:23:43;;;;;;;2.40;1.17;;;21.30;99.90;;;;;;4973615;28;20613;-73
2022/07/07 12:26:15;;;;;;;2.22;1.50;;;21.50;99.90;;;;;;4972390;28;20217;-74
2022/07/07 12:28:43;;;;;;;3.05;1.23;;;21.70;99.90;;;;;;4972928;28;20431;-72
2022/07/07 12:31:17;;;;;;;1.70;1.30;;;22.10;99.90;;;;;;4974391;28;20224;-73
2022/07/07 12:33:44;;;;;;;1.73;1.20;;;22.50;99.90;;;;;;4977179;28;20296;-73
2022/07/07 12:36:24;;;;;;;1.98;1.27;;;22.80;99.90;;;;;;4971303;28;20209;-73
2022/07/07 12:38:57;;;;;;;1.52;1.13;;;23.30;99.90;;;;;;4973895;28;20212;-73
2022/07/07 12:41:35;;;;;;;2.63;1.52;;;23.70;99.90;;;;;;4973099;28;20216;-74
2022/07/07 12:44:14;;;;;;;1.60;1.50;;;23.60;99.90;;;;;;4970593;28;20235;-71
2022/07/07 12:46:42;;;;;;;2.25;1.58;;;23.30;99.90;;;;;;4965468;28;20213;-70
2022/07/07 12:49:09;;;;;;;2.95;1.33;;;23.20;99.90;;;;;;4983066;28;20710;-72
2022/07/07 12:51:45;;;;;;;3.65;1.55;;;22.70;99.90;;;;;;4978628;28;20485;-72
2022/07/07 12:54:27;;;;;;;1.30;1.20;;;22.30;99.90;;;;;;4970689;28;20220;-73
2022/07/07 12:57:00;;;;;;;2.45;1.27;;;21.80;99.90;;;;;;4970431;28;20256;-74
2022/07/07 12:59:34;;;;;;;3.50;1.30;;;21.40;99.90;;;;;;4971494;28;20209;-72
2022/07/07 13:02:00;;;;;;;0.93;0.93;;;21.10;99.90;;;;;;4971149;28;20196;-72